Time;durP1;ratioP1;P1;durP2;ratioP2;P2;SDS_P1;SDS_P2;PMS_P1;PMS_P2;Temp;Humidity;BMP_temperature;BMP_pressure;BME280_temperature;BME280_humidity;BME280_pressure;Samples;Min_cycle;Max_cycle;Signal;HPM_P1;HPM_P2
2022/11/25 00:00:46;;;;;;;;;;;5.00;99.90;;;;;;5024531;28;1021;-85
2022/11/25 00:03:14;;;;;;;;;;;5.00;99.90;;;;;;5021307;28;1539;-87
2022/11/25 00:05:42;;;;;;;;;;;5.00;99.90;;;;;;5018540;28;1022;-86
2022/11/25 00:08:10;;;;;;;;;;;5.00;99.90;;;;;;5018455;28;1296;-86
2022/11/25 00:10:38;;;;;;;;;;;5.10;99.90;;;;;;5018099;28;1571;-85
2022/11/25 00:13:07;;;;;;;;;;;5.10;99.90;;;;;;5018081;28;1983;-87
2022/11/25 00:15:34;;;;;;;;;;;5.10;99.90;;;;;;5028063;28;804;-89
2022/11/25 00:18:02;;;;;;;;;;;5.10;99.90;;;;;;5038227;28;1548;-87
2022/11/25 00:20:30;;;;;;;;;;;5.10;99.90;;;;;;5043166;28;1536;-88
2022/11/25 00:22:57;;;;;;;;;;;5.10;99.90;;;;;;5026800;28;1672;-88
2022/11/25 00:25:25;;;;;;;;;;;5.10;99.90;;;;;;5034941;28;1588;-87
2022/11/25 00:27:53;;;;;;;;;;;5.20;99.90;;;;;;5035786;28;1525;-87
2022/11/25 00:30:22;;;;;;;;;;;5.30;99.90;;;;;;5030768;28;1457;-86
2022/11/25 00:32:50;;;;;;;;;;;5.20;99.90;;;;;;5035396;28;1898;-87
2022/11/25 00:35:17;;;;;;;;;;;5.30;99.90;;;;;;5032853;28;1646;-87
2022/11/25 00:37:45;;;;;;;;;;;5.50;99.90;;;;;;5043901;28;1577;-89
2022/11/25 00:40:13;;;;;;;;;;;5.30;99.90;;;;;;5047681;28;1568;-87
2022/11/25 00:45:27;;;;;;;;;;;5.40;99.90;;;;;;5031507;28;1352;-88
2022/11/25 00:47:55;;;;;;;;;;;5.40;99.90;;;;;;5026142;28;1648;-87
2022/11/25 00:50:23;;;;;;;;;;;5.50;99.90;;;;;;5031959;28;1671;-87
2022/11/25 00:52:50;;;;;;;;;;;5.90;99.90;;;;;;5037166;28;1891;-87
2022/11/25 00:55:18;;;;;;;;;;;5.40;99.90;;;;;;5034113;28;1331;-86
2022/11/25 00:57:46;;;;;;;;;;;5.40;99.90;;;;;;5042314;28;1351;-88
2022/11/25 01:00:14;;;;;;;;;;;5.50;99.90;;;;;;5041519;28;1144;-88
2022/11/25 01:02:43;;;;;;;;;;;5.50;99.90;;;;;;5046732;28;1013;-87
2022/11/25 01:05:11;;;;;;;;;;;5.60;99.90;;;;;;5043602;28;1049;-87
2022/11/25 01:07:38;;;;;;;;;;;5.50;99.90;;;;;;5039774;28;1670;-87
2022/11/25 01:10:07;;;;;;;;;;;5.60;99.90;;;;;;5040506;28;1252;-88
2022/11/25 01:12:35;;;;;;;;;;;5.60;99.90;;;;;;5026162;28;1993;-88
2022/11/25 01:15:02;;;;;;;;;;;5.50;99.90;;;;;;5032527;28;1544;-88
2022/11/25 01:17:30;;;;;;;;;;;5.40;99.90;;;;;;5026842;28;1078;-86
2022/11/25 01:19:59;;;;;;;;;;;5.40;99.90;;;;;;5033843;28;1609;-87
2022/11/25 01:22:27;;;;;;;;;;;5.30;99.90;;;;;;5020395;28;1577;-87
2022/11/25 01:24:55;;;;;;;;;;;5.40;99.90;;;;;;5021228;28;970;-87
2022/11/25 01:27:22;;;;;;;;;;;5.40;99.90;;;;;;5021300;28;1562;-87
2022/11/25 01:29:50;;;;;;;;;;;5.40;99.90;;;;;;5021344;28;1229;-86
2022/11/25 01:32:18;;;;;;;;;;;5.30;99.90;;;;;;5020951;28;1890;-88
2022/11/25 01:34:45;;;;;;;;;;;5.20;99.90;;;;;;5021119;28;1006;-87
2022/11/25 01:37:14;;;;;;;;;;;5.10;99.90;;;;;;5020881;28;1287;-87
2022/11/25 01:39:42;;;;;;;;;;;5.00;99.90;;;;;;5024962;28;1327;-87
2022/11/25 01:42:10;;;;;;;;;;;5.10;99.90;;;;;;5033406;28;1001;-88
2022/11/25 01:44:41;;;;;;;;;;;4.90;99.90;;;;;;5035012;28;1450;-86
2022/11/25 01:47:12;;;;;;;;;;;4.80;99.90;;;;;;5051587;28;1748;-87
2022/11/25 01:49:42;;;;;;;;;;;4.70;99.90;;;;;;5042017;28;1331;-86
2022/11/25 01:52:13;;;;;;;;;;;4.70;99.90;;;;;;5031814;28;1014;-87
2022/11/25 01:54:46;;;;;;;;;;;4.70;99.90;;;;;;5020200;28;1968;-87
2022/11/25 01:57:17;;;;;;;;;;;4.70;99.90;;;;;;5020035;28;1548;-86
2022/11/25 01:59:50;;;;;;;;;;;4.70;99.90;;;;;;5019373;28;1359;-88
2022/11/25 02:02:18;;;;;;;;;;;4.60;99.90;;;;;;5018643;28;1041;-87
2022/11/25 02:04:46;;;;;;;;;;;4.60;99.90;;;;;;5018820;28;1050;-87
2022/11/25 02:07:15;;;;;;;;;;;4.60;99.90;;;;;;5018165;28;1296;-86
2022/11/25 02:09:45;;;;;;;;;;;4.60;99.90;;;;;;5018416;28;1296;-86
2022/11/25 02:12:15;;;;;;;;;;;4.60;99.90;;;;;;5019834;28;1620;-88
2022/11/25 02:17:30;;;;;;;;;;;4.60;99.90;;;;;;5573584;23;2104;-86
2022/11/25 02:20:02;;;;;;;;;;;4.60;99.90;;;;;;5038303;28;1549;-86
2022/11/25 02:22:34;;;;;;;;;;;4.60;99.90;;;;;;5037173;28;1068;-87
2022/11/25 02:25:07;;;;;;;;;;;4.60;99.90;;;;;;5041964;28;1228;-86
2022/11/25 02:27:35;;;;;;;;;;;4.60;99.90;;;;;;5034981;28;1168;-87
2022/11/25 02:30:03;;;;;;;;;;;4.50;99.90;;;;;;5022044;28;1421;-86
2022/11/25 02:32:31;;;;;;;;;;;4.50;99.90;;;;;;5033681;28;1143;-87
2022/11/25 02:34:58;;;;;;;;;;;4.80;99.90;;;;;;5042063;28;1910;-85
2022/11/25 02:37:26;;;;;;;;;;;4.80;99.90;;;;;;5039967;28;1006;-87
2022/11/25 02:39:54;;;;;;;;;;;4.80;99.90;;;;;;5033172;28;1677;-86
2022/11/25 02:42:24;;;;;;;;;;;4.60;99.90;;;;;;5024111;28;1041;-87
2022/11/25 02:44:52;;;;;;;;;;;4.60;99.90;;;;;;5032103;28;1521;-86
2022/11/25 02:47:20;;;;;;;;;;;4.60;99.90;;;;;;5036399;28;1550;-88
2022/11/25 02:49:47;;;;;;;;;;;4.60;99.90;;;;;;5039700;28;1667;-87
2022/11/25 02:52:15;;;;;;;;;;;4.80;99.90;;;;;;5041263;28;1108;-85
2022/11/25 02:54:42;;;;;;;;;;;4.60;99.90;;;;;;5037209;28;1891;-86
2022/11/25 02:57:10;;;;;;;;;;;4.70;99.90;;;;;;5053439;28;1274;-87
2022/11/25 02:59:39;;;;;;;;;;;4.60;99.90;;;;;;5051795;28;1413;-86
2022/11/25 03:02:07;;;;;;;;;;;4.50;99.90;;;;;;5031947;28;1005;-88
2022/11/25 03:04:35;;;;;;;;;;;4.60;99.90;;;;;;5034995;28;1675;-86
2022/11/25 03:07:03;;;;;;;;;;;4.60;99.90;;;;;;5040998;28;990;-87
2022/11/25 03:09:30;;;;;;;;;;;4.80;99.90;;;;;;5041052;28;1532;-87
2022/11/25 03:14:45;;;;;;;;;;;4.90;99.90;;;;;;5022556;28;1906;-85
2022/11/25 03:17:12;;;;;;;;;;;4.70;99.90;;;;;;5032486;28;1513;-87
2022/11/25 03:19:40;;;;;;;;;;;4.60;99.90;;;;;;5033455;28;1335;-89
2022/11/25 03:22:08;;;;;;;;;;;4.60;99.90;;;;;;5025295;28;1077;-89
2022/11/25 03:24:35;;;;;;;;;;;4.60;99.90;;;;;;5024245;28;1317;-89
2022/11/25 03:27:03;;;;;;;;;;;4.60;99.90;;;;;;5027045;28;1744;-87
2022/11/25 03:29:31;;;;;;;;;;;4.50;99.90;;;;;;5031685;28;1502;-88
2022/11/25 03:32:00;;;;;;;;;;;4.50;99.90;;;;;;5025998;28;1752;-87
2022/11/25 03:34:35;;;;;;;;;;;4.60;99.90;;;;;;5021801;28;1906;-89
2022/11/25 03:37:03;;;;;;;;;;;4.50;99.90;;;;;;5027929;28;1681;-89
2022/11/25 03:39:31;;;;;;;;;;;4.50;99.90;;;;;;5034383;28;1665;-87
2022/11/25 03:41:59;;;;;;;;;;;4.50;99.90;;;;;;5031340;28;1017;-88
2022/11/25 03:44:27;;;;;;;;;;;4.70;99.90;;;;;;5037314;28;1049;-87
2022/11/25 03:46:54;;;;;;;;;;;4.50;99.90;;;;;;5031079;28;1227;-86
2022/11/25 03:49:23;;;;;;;;;;;4.40;99.90;;;;;;5023189;28;1520;-86
2022/11/25 03:51:51;;;;;;;;;;;4.50;99.90;;;;;;5024219;28;1537;-88
2022/11/25 03:54:19;;;;;;;;;;;4.40;99.90;;;;;;5024543;28;1915;-87
2022/11/25 03:56:47;;;;;;;;;;;4.40;99.90;;;;;;5034983;28;1677;-89
2022/11/25 03:59:14;;;;;;;;;;;4.40;99.90;;;;;;5038529;28;1282;-89
2022/11/25 04:01:42;;;;;;;;;;;4.40;99.90;;;;;;5028631;28;1068;-85
2022/11/25 04:04:11;;;;;;;;;;;4.40;99.90;;;;;;5047332;28;1054;-86
2022/11/25 04:06:40;;;;;;;;;;;4.50;99.90;;;;;;5029068;28;1077;-86
2022/11/25 04:09:10;;;;;;;;;;;4.40;99.90;;;;;;5034045;28;1361;-88
2022/11/25 04:14:23;;;;;;;;;;;4.50;99.90;;;;;;5024439;28;1895;-88
2022/11/25 04:16:51;;;;;;;;;;;4.40;99.90;;;;;;5030427;28;1016;-87
2022/11/25 04:19:19;;;;;;;;;;;4.50;99.90;;;;;;5030165;28;1354;-89
2022/11/25 04:21:48;;;;;;;;;;;4.30;99.90;;;;;;5039704;28;1588;-89
2022/11/25 04:24:19;;;;;;;;;;;4.30;99.90;;;;;;5027616;28;1020;-88
2022/11/25 04:26:47;;;;;;;;;;;4.40;99.90;;;;;;5026811;28;1025;-90
2022/11/25 04:29:14;;;;;;;;;;;4.10;99.90;;;;;;5032706;28;1596;-87
2022/11/25 04:31:42;;;;;;;;;;;4.10;99.90;;;;;;5033364;28;973;-87
2022/11/25 04:34:10;;;;;;;;;;;4.40;99.90;;;;;;5030150;28;1906;-89
2022/11/25 04:36:37;;;;;;;;;;;4.10;99.90;;;;;;5029571;28;1505;-88
2022/11/25 04:39:06;;;;;;;;;;;4.20;99.90;;;;;;5020998;28;1518;-88
2022/11/25 04:41:34;;;;;;;;;;;4.20;99.90;;;;;;5032605;28;1593;-88
2022/11/25 04:44:02;;;;;;;;;;;4.20;99.90;;;;;;5029636;28;961;-88
2022/11/25 04:46:39;;;;;;;;;;;4.20;99.90;;;;;;5023808;28;1537;-90
2022/11/25 04:49:07;;;;;;;;;;;4.10;99.90;;;;;;5024691;28;1655;-88
2022/11/25 04:51:35;;;;;;;;;;;4.20;99.90;;;;;;5038600;28;1674;-87
2022/11/25 04:54:02;;;;;;;;;;;4.20;99.90;;;;;;5029385;28;1977;-89
2022/11/25 04:56:31;;;;;;;;;;;4.10;99.90;;;;;;5021455;28;1144;-87
2022/11/25 05:01:44;;;;;;;;;;;4.00;99.90;;;;;;5017516;28;1602;-88
2022/11/25 05:04:12;;;;;;;;;;;4.30;99.90;;;;;;5022334;28;973;-88
2022/11/25 05:06:39;;;;;;;;;;;4.00;99.90;;;;;;5024027;28;1572;-89
2022/11/25 05:09:09;;;;;;;;;;;4.20;99.90;;;;;;5039222;28;1358;-85
2022/11/25 05:11:38;;;;;;;;;;;4.30;99.90;;;;;;5025487;28;891;-88
2022/11/25 05:14:06;;;;;;;;;;;4.20;99.90;;;;;;5022669;28;1895;-89
2022/11/25 05:16:34;;;;;;;;;;;4.10;99.90;;;;;;5027870;28;1111;-88
2022/11/25 05:19:01;;;;;;;;;;;4.30;99.90;;;;;;5026274;28;1754;-87
2022/11/25 05:21:29;;;;;;;;;;;4.30;99.90;;;;;;5021732;28;1600;-87
2022/11/25 05:23:57;;;;;;;;;;;4.40;99.90;;;;;;5019666;28;1694;-88
2022/11/25 05:26:24;;;;;;;;;;;4.40;99.90;;;;;;5019267;28;1014;-86
2022/11/25 05:28:53;;;;;;;;;;;4.40;99.90;;;;;;5028289;28;1334;-88
2022/11/25 05:31:21;;;;;;;;;;;4.60;99.90;;;;;;5022325;28;1029;-87
2022/11/25 05:33:49;;;;;;;;;;;4.40;99.90;;;;;;5019852;28;1048;-88
2022/11/25 05:36:16;;;;;;;;;;;4.40;99.90;;;;;;5021906;28;1995;-88
2022/11/25 05:38:44;;;;;;;;;;;4.50;99.90;;;;;;5028967;28;1508;-88
2022/11/25 05:41:12;;;;;;;;;;;4.50;99.90;;;;;;5036828;28;994;-88
2022/11/25 05:43:40;;;;;;;;;;;4.70;99.90;;;;;;5020737;28;1579;-88
2022/11/25 05:46:09;;;;;;;;;;;4.50;99.90;;;;;;5038984;28;1627;-87
2022/11/25 05:48:37;;;;;;;;;;;4.60;99.90;;;;;;5040387;28;1517;-89
2022/11/25 05:51:05;;;;;;;;;;;4.70;99.90;;;;;;5025255;28;1529;-87
2022/11/25 05:53:33;;;;;;;;;;;4.80;99.90;;;;;;5019619;28;1365;-87
2022/11/25 05:56:01;;;;;;;;;;;4.90;99.90;;;;;;5026603;28;1891;-86
2022/11/25 05:58:29;;;;;;;;;;;5.10;99.90;;;;;;5041176;28;1303;-88
2022/11/25 06:00:57;;;;;;;;;;;4.90;99.90;;;;;;5040611;28;1410;-88
2022/11/25 06:03:27;;;;;;;;;;;5.00;99.90;;;;;;5041784;28;1134;-87
2022/11/25 06:05:55;;;;;;;;;;;5.00;99.90;;;;;;5040796;28;1390;-88
2022/11/25 06:08:23;;;;;;;;;;;5.10;99.90;;;;;;5036703;28;1394;-87
2022/11/25 06:10:50;;;;;;;;;;;5.10;99.90;;;;;;5037818;28;1148;-87
2022/11/25 06:13:18;;;;;;;;;;;5.00;99.90;;;;;;5048616;28;1581;-88
2022/11/25 06:15:46;;;;;;;;;;;5.00;99.90;;;;;;5053959;28;1973;-89
2022/11/25 06:18:15;;;;;;;;;;;5.00;99.90;;;;;;5036770;28;1342;-89
2022/11/25 06:20:44;;;;;;;;;;;4.90;99.90;;;;;;5029784;28;1718;-88
2022/11/25 06:23:12;;;;;;;;;;;4.80;99.90;;;;;;5027661;28;1558;-88
2022/11/25 06:25:39;;;;;;;;;;;4.80;99.90;;;;;;5041482;28;1631;-88
2022/11/25 06:28:07;;;;;;;;;;;4.80;99.90;;;;;;5033253;28;1515;-87
2022/11/25 06:30:40;;;;;;;;;;;4.80;99.90;;;;;;5036307;28;1576;-88
2022/11/25 06:33:07;;;;;;;;;;;4.80;99.90;;;;;;5023829;28;1785;-87
2022/11/25 06:35:35;;;;;;;;;;;4.70;99.90;;;;;;5032522;28;1989;-88
2022/11/25 06:38:04;;;;;;;;;;;4.80;99.90;;;;;;5041364;28;1604;-87
2022/11/25 06:40:32;;;;;;;;;;;4.80;99.90;;;;;;5034576;28;1651;-87
2022/11/25 06:42:59;;;;;;;;;;;4.80;99.90;;;;;;5027714;28;1370;-87
2022/11/25 06:45:28;;;;;;;;;;;4.80;99.90;;;;;;5044971;28;1544;-88
2022/11/25 06:48:08;;;;;;;;;;;4.80;99.90;;;;;;5033890;28;1641;-88
2022/11/25 06:50:36;;;;;;;;;;;4.80;99.90;;;;;;5034353;28;1631;-88
2022/11/25 06:53:05;;;;;;;;;;;4.70;99.90;;;;;;5025923;28;1096;-86
2022/11/25 06:55:33;;;;;;;;;;;5.10;99.90;;;;;;5021502;28;1981;-85
2022/11/25 06:58:00;;;;;;;;;;;4.90;99.90;;;;;;5027302;28;1417;-85
2022/11/25 07:00:48;;;;;;;;;;;4.80;99.90;;;;;;5033563;28;1631;-85
2022/11/25 07:03:18;;;;;;;;;;;4.90;99.90;;;;;;5038176;28;1156;-86
2022/11/25 07:05:47;;;;;;;;;;;4.90;99.90;;;;;;5036799;28;1235;-86
2022/11/25 07:08:16;;;;;;;;;;;4.90;99.90;;;;;;5033130;28;1720;-85
2022/11/25 07:10:43;;;;;;;;;;;5.00;99.90;;;;;;5040224;28;1663;-85
2022/11/25 07:13:11;;;;;;;;;;;5.10;99.90;;;;;;5042409;28;1819;-85
2022/11/25 07:15:39;;;;;;;;;;;5.00;99.90;;;;;;5029856;28;1898;-86
2022/11/25 07:18:07;;;;;;;;;;;5.20;99.90;;;;;;5033249;28;1392;-86
2022/11/25 07:20:34;;;;;;;;;;;5.00;99.90;;;;;;5053702;28;1341;-89
2022/11/25 07:23:02;;;;;;;;;;;5.00;99.90;;;;;;5048558;28;1639;-89
2022/11/25 07:25:34;;;;;;;;;;;5.10;99.90;;;;;;5044756;28;1579;-89
2022/11/25 07:28:02;;;;;;;;;;;5.00;99.90;;;;;;5043895;28;1657;-88
2022/11/25 07:30:30;;;;;;;;;;;5.10;99.90;;;;;;5045042;28;1477;-88
2022/11/25 07:33:17;;;;;;;;;;;5.20;99.90;;;;;;5033911;28;1179;-89
2022/11/25 07:35:45;;;;;;;;;;;5.20;99.90;;;;;;5034589;28;1996;-91
2022/11/25 07:38:13;;;;;;;;;;;5.40;99.90;;;;;;5030124;28;1468;-89
2022/11/25 07:40:42;;;;;;;;;;;5.30;99.90;;;;;;5025106;28;1077;-88
2022/11/25 07:43:10;;;;;;;;;;;5.70;99.90;;;;;;5020663;28;1589;-88
2022/11/25 07:45:38;;;;;;;;;;;5.80;99.90;;;;;;5029672;28;1383;-85
2022/11/25 07:48:05;;;;;;;;;;;5.60;99.90;;;;;;5025106;28;1509;-86
2022/11/25 07:50:33;;;;;;;;;;;5.60;99.90;;;;;;5026684;28;1457;-85
2022/11/25 07:53:01;;;;;;;;;;;5.70;99.90;;;;;;5028924;28;1093;-85
2022/11/25 07:55:29;;;;;;;;;;;5.70;99.90;;;;;;5023372;28;1315;-85
2022/11/25 07:58:01;;;;;;;;;;;5.70;99.90;;;;;;5033503;28;1520;-84
2022/11/25 08:00:29;;;;;;;;;;;5.80;99.90;;;;;;5038210;28;1520;-85
2022/11/25 08:02:56;;;;;;;;;;;5.80;99.90;;;;;;5019459;28;1487;-84
2022/11/25 08:05:27;;;;;;;;;;;6.00;99.90;;;;;;5028938;28;1075;-87
2022/11/25 08:07:54;;;;;;;;;;;5.90;99.90;;;;;;5026000;28;1350;-86
2022/11/25 08:10:22;;;;;;;;;;;6.00;99.90;;;;;;5032951;28;1029;-86
2022/11/25 08:12:50;;;;;;;;;;;6.00;99.90;;;;;;5036816;28;1141;-85
2022/11/25 08:15:19;;;;;;;;;;;5.60;99.90;;;;;;5034215;28;1587;-86
2022/11/25 08:17:49;;;;;;;;;;;6.00;99.90;;;;;;5034798;28;1910;-86
2022/11/25 08:20:16;;;;;;;;;;;5.70;99.90;;;;;;5025938;28;1534;-85
2022/11/25 08:22:44;;;;;;;;;;;6.30;99.90;;;;;;5034659;28;1044;-87
2022/11/25 08:25:12;;;;;;;;;;;6.00;99.90;;;;;;5037614;28;1619;-86
2022/11/25 08:27:41;;;;;;;;;;;6.10;99.90;;;;;;5050842;28;1337;-86
2022/11/25 08:30:09;;;;;;;;;;;6.40;99.90;;;;;;5030616;28;1067;-86
2022/11/25 08:32:39;;;;;;;;;;;6.20;99.90;;;;;;5033786;28;1586;-86
2022/11/25 08:35:07;;;;;;;;;;;6.10;99.90;;;;;;5020427;28;1889;-90
2022/11/25 08:37:35;;;;;;;;;;;6.30;99.90;;;;;;5020417;28;1963;-86
2022/11/25 08:40:03;;;;;;;;;;;6.50;99.90;;;;;;5021459;28;1404;-86
2022/11/25 08:42:31;;;;;;;;;;;6.30;99.90;;;;;;5020557;28;1021;-87
2022/11/25 08:44:58;;;;;;;;;;;6.50;99.90;;;;;;5019509;28;1642;-86
2022/11/25 08:47:26;;;;;;;;;;;6.50;99.90;;;;;;5020998;28;1149;-86
2022/11/25 08:49:55;;;;;;;;;;;6.50;99.90;;;;;;5019030;28;1342;-85
2022/11/25 08:52:23;;;;;;;;;;;6.50;99.90;;;;;;5019460;28;1056;-86
2022/11/25 08:54:51;;;;;;;;;;;6.80;99.90;;;;;;5020661;28;1670;-85
2022/11/25 08:57:18;;;;;;;;;;;6.60;99.90;;;;;;5040848;28;1969;-87
2022/11/25 08:59:46;;;;;;;;;;;6.60;99.90;;;;;;5026172;28;1446;-88
2022/11/25 09:02:15;;;;;;;;;;;6.60;99.90;;;;;;5023108;28;1689;-88
2022/11/25 09:04:43;;;;;;;;;;;6.70;99.90;;;;;;5021380;28;1678;-86
2022/11/25 09:07:12;;;;;;;;;;;6.80;99.90;;;;;;5026717;28;974;-86
2022/11/25 09:09:40;;;;;;;;;;;6.80;99.90;;;;;;5024244;28;1682;-87
2022/11/25 09:12:07;;;;;;;;;;;6.80;99.90;;;;;;5032401;28;1295;-86
2022/11/25 09:14:36;;;;;;;;;;;6.80;99.90;;;;;;5035692;28;1017;-87
2022/11/25 09:17:07;;;;;;;;;;;7.00;99.90;;;;;;5030375;28;2004;-86
2022/11/25 09:19:35;;;;;;;;;;;6.90;99.90;;;;;;5021266;28;1480;-88
2022/11/25 09:22:03;;;;;;;;;;;6.90;99.90;;;;;;5036354;28;1764;-89
2022/11/25 09:24:34;;;;;;;;;;;6.90;99.90;;;;;;5043284;28;1013;-87
2022/11/25 09:27:04;;;;;;;;;;;7.10;99.90;;;;;;5029519;28;962;-88
2022/11/25 09:29:32;;;;;;;;;;;6.90;99.40;;;;;;5033808;28;1548;-86
2022/11/25 09:32:00;;;;;;;;;;;6.90;99.60;;;;;;5048958;28;1690;-85
2022/11/25 09:34:30;;;;;;;;;;;6.90;99.90;;;;;;5035226;28;1575;-88
2022/11/25 09:36:58;;;;;;;;;;;7.30;99.90;;;;;;5024303;28;1906;-87
2022/11/25 09:39:28;;;;;;;;;;;7.10;99.90;;;;;;5033019;28;1367;-88
2022/11/25 09:47:44;;;;;;;;;;;7.20;99.90;;;;;;5028666;28;1761;-88
2022/11/25 09:50:30;;;;;;;;;;;7.20;99.90;;;;;;5033777;28;1579;-86
2022/11/25 09:53:03;;;;;;;;;;;7.00;99.90;;;;;;5034893;28;2095;-87
2022/11/25 09:55:33;;;;;;;;;;;7.10;99.90;;;;;;5030851;28;1504;-86
2022/11/25 09:58:06;;;;;;;;;;;7.30;99.90;;;;;;5042267;28;1965;-86
2022/11/25 10:00:37;;;;;;;;;;;6.80;99.90;;;;;;5050271;28;1522;-88
2022/11/25 10:03:09;;;;;;;;;;;7.20;99.90;;;;;;5047715;28;1790;-86
2022/11/25 10:05:41;;;;;;;;;;;7.00;99.90;;;;;;5038829;28;1017;-87
2022/11/25 10:08:11;;;;;;;;;;;7.00;99.90;;;;;;5040788;28;1406;-85
2022/11/25 10:10:43;;;;;;;;;;;7.00;99.90;;;;;;5031035;28;1384;-87
2022/11/25 10:13:15;;;;;;;;;;;6.90;99.90;;;;;;5037191;28;1156;-87
2022/11/25 10:15:46;;;;;;;;;;;7.10;99.90;;;;;;5038807;28;1133;-86
2022/11/25 10:18:18;;;;;;;;;;;7.00;99.90;;;;;;5041070;28;1967;-86
2022/11/25 10:20:48;;;;;;;;;;;7.30;99.90;;;;;;5037979;28;1614;-87
2022/11/25 10:23:18;;;;;;;;;;;7.10;99.90;;;;;;5041123;28;1541;-88
2022/11/25 10:25:55;;;;;;;;;;;7.10;99.90;;;;;;5043366;28;1240;-88
2022/11/25 10:28:25;;;;;;;;;;;7.20;99.90;;;;;;5027542;28;1352;-87
2022/11/25 10:30:57;;;;;;;;;;;7.30;99.90;;;;;;5036813;28;1650;-88
2022/11/25 10:33:27;;;;;;;;;;;7.10;99.90;;;;;;5036942;28;1230;-87
2022/11/25 10:35:57;;;;;;;;;;;7.10;99.90;;;;;;5035638;28;1663;-87
2022/11/25 10:38:26;;;;;;;;;;;7.40;99.90;;;;;;5058884;28;1883;-87
2022/11/25 10:41:00;;;;;;;;;;;7.20;99.90;;;;;;5042471;28;1101;-87
2022/11/25 10:43:29;;;;;;;;;;;7.40;99.90;;;;;;5033951;28;1655;-86
2022/11/25 10:46:01;;;;;;;;;;;7.40;99.90;;;;;;5031121;28;1671;-88
2022/11/25 10:48:38;;;;;;;;;;;7.30;99.90;;;;;;5030283;28;1344;-89
2022/11/25 10:51:18;;;;;;;;;;;7.30;99.90;;;;;;5033984;28;1427;-87
2022/11/25 10:54:00;;;;;;;;;;;7.50;99.90;;;;;;5039836;28;1635;-86
2022/11/25 10:56:30;;;;;;;;;;;7.40;99.90;;;;;;5030266;28;1243;-88
2022/11/25 10:59:12;;;;;;;;;;;7.40;99.90;;;;;;5030056;28;1895;-87
2022/11/25 11:01:40;;;;;;;;;;;7.60;99.90;;;;;;5041081;28;950;-88
2022/11/25 11:04:11;;;;;;;;;;;7.40;99.90;;;;;;5028565;28;1526;-87
2022/11/25 11:06:42;;;;;;;;;;;7.50;99.90;;;;;;5032126;28;1691;-88
2022/11/25 11:09:32;;;;;;;;;;;7.60;99.90;;;;;;5022370;28;1407;-89
2022/11/25 11:12:09;;;;;;;;;;;7.70;99.90;;;;;;5034408;28;1535;-88
2022/11/25 11:14:38;;;;;;;;;;;7.60;99.90;;;;;;5031084;28;1156;-88
2022/11/25 11:17:22;;;;;;;;;;;7.80;99.90;;;;;;5036069;28;1741;-87
2022/11/25 11:20:00;;;;;;;;;;;7.80;99.90;;;;;;5026681;28;1397;-88
2022/11/25 11:22:28;;;;;;;;;;;7.50;99.90;;;;;;5040959;28;1811;-87
2022/11/25 11:25:08;;;;;;;;;;;7.50;99.90;;;;;;5032086;28;1157;-88
2022/11/25 11:27:36;;;;;;;;;;;7.60;99.90;;;;;;5028495;28;1935;-88
2022/11/25 11:30:10;;;;;;;;;;;7.70;99.90;;;;;;5035652;28;1286;-87
2022/11/25 11:32:42;;;;;;;;;;;7.70;99.90;;;;;;5029933;28;1180;-89
2022/11/25 11:35:15;;;;;;;;;;;7.60;99.90;;;;;;5038397;28;1085;-88
2022/11/25 11:37:44;;;;;;;;;;;7.60;99.90;;;;;;5033286;28;2005;-88
2022/11/25 11:40:21;;;;;;;;;;;7.60;99.90;;;;;;5035604;28;1156;-87
2022/11/25 11:43:03;;;;;;;;;;;7.80;99.90;;;;;;5047911;28;1156;-87
2022/11/25 11:45:47;;;;;;;;;;;7.80;99.90;;;;;;5029875;28;1711;-87
2022/11/25 11:48:24;;;;;;;;;;;7.80;99.90;;;;;;5027619;28;1291;-88
2022/11/25 11:50:57;;;;;;;;;;;7.90;99.90;;;;;;5032769;28;1272;-87
2022/11/25 11:53:30;;;;;;;;;;;7.90;99.90;;;;;;5024351;28;1425;-88
2022/11/25 11:56:02;;;;;;;;;;;7.80;99.90;;;;;;5028591;28;1076;-87
2022/11/25 11:58:54;;;;;;;;;;;7.90;99.90;;;;;;5024048;28;2000;-87
2022/11/25 12:01:29;;;;;;;;;;;7.80;99.90;;;;;;5032758;28;1435;-88
2022/11/25 12:03:58;;;;;;;;;;;7.80;99.90;;;;;;5028774;28;1168;-88
2022/11/25 12:06:28;;;;;;;;;;;7.90;99.90;;;;;;5031444;28;1358;-87
2022/11/25 12:09:00;;;;;;;;;;;7.80;99.90;;;;;;5030180;28;2060;-89
2022/11/25 12:11:32;;;;;;;;;;;8.00;99.90;;;;;;5033052;28;1188;-87
2022/11/25 12:14:02;;;;;;;;;;;8.00;99.90;;;;;;5031218;28;1102;-86
2022/11/25 12:16:33;;;;;;;;;;;8.00;99.90;;;;;;5034079;28;1730;-86
2022/11/25 12:19:04;;;;;;;;;;;8.00;99.90;;;;;;5033291;28;1993;-85
2022/11/25 12:21:37;;;;;;;;;;;8.00;99.90;;;;;;5022102;28;1527;-86
2022/11/25 12:24:13;;;;;;;;;;;8.00;99.90;;;;;;5027721;28;1550;-87
2022/11/25 12:26:45;;;;;;;;;;;8.10;99.90;;;;;;5030241;28;1183;-87
2022/11/25 12:29:17;;;;;;;;;;;8.00;99.90;;;;;;5025540;28;1299;-89
2022/11/25 12:31:50;;;;;;;;;;;8.00;99.90;;;;;;5031986;28;1315;-87
2022/11/25 12:34:22;;;;;;;;;;;8.00;99.90;;;;;;5035073;28;1168;-87
2022/11/25 12:36:49;;;;;;;;;;;8.00;99.90;;;;;;5030560;28;1552;-88
2022/11/25 12:39:24;;;;;;;;;;;8.10;99.90;;;;;;5036910;28;1976;-87
2022/11/25 12:41:53;;;;;;;;;;;8.20;99.90;;;;;;5035330;28;965;-88
2022/11/25 12:44:23;;;;;;;;;;;8.40;99.90;;;;;;5029234;28;1385;-88
2022/11/25 12:46:54;;;;;;;;;;;8.30;99.90;;;;;;5045180;28;1647;-86
2022/11/25 12:49:24;;;;;;;;;;;8.30;99.90;;;;;;5052773;28;1343;-87
2022/11/25 12:52:05;;;;;;;;;;;8.50;99.90;;;;;;5037126;28;1697;-87
2022/11/25 12:54:50;;;;;;;;;;;8.50;99.90;;;;;;5023581;28;1756;-87
2022/11/25 12:57:23;;;;;;;;;;;8.50;99.90;;;;;;5033403;28;1412;-88
2022/11/25 13:00:00;;;;;;;;;;;8.50;99.90;;;;;;5034189;28;1910;-89
2022/11/25 13:03:11;;;;;;;;;;;8.50;99.90;;;;;;5022780;28;1626;-87
2022/11/25 13:05:54;;;;;;;;;;;8.50;99.90;;;;;;5026776;28;1332;-90
2022/11/25 13:08:29;;;;;;;;;;;8.50;99.90;;;;;;5022369;28;1537;-87
2022/11/25 13:11:05;;;;;;;;;;;8.70;99.90;;;;;;5020710;28;1105;-88
2022/11/25 13:13:38;;;;;;;;;;;8.40;99.90;;;;;;5032083;28;1419;-89
2022/11/25 13:16:10;;;;;;;;;;;8.50;99.90;;;;;;5037976;28;1076;-89
2022/11/25 13:18:41;;;;;;;;;;;8.40;99.90;;;;;;5019171;28;1953;-88
2022/11/25 13:21:11;;;;;;;;;;;8.40;99.90;;;;;;5019859;28;1645;-88
2022/11/25 13:23:49;;;;;;;;;;;8.50;99.90;;;;;;5020861;28;1587;-88
2022/11/25 13:26:45;;;;;;;;;;;8.50;99.90;;;;;;5021843;28;1663;-90
2022/11/25 13:29:31;;;;;;;;;;;8.50;99.90;;;;;;5028576;28;1790;-90
2022/11/25 13:32:00;;;;;;;;;;;8.10;99.90;;;;;;5024547;28;1159;-88
2022/11/25 13:34:29;;;;;;;;;;;8.10;99.90;;;;;;5027635;28;1549;-88
2022/11/25 13:36:59;;;;;;;;;;;8.20;99.90;;;;;;5032752;28;1187;-89
2022/11/25 13:39:34;;;;;;;;;;;8.10;99.90;;;;;;5027624;28;1909;-88
2022/11/25 13:42:03;;;;;;;;;;;8.00;99.90;;;;;;5038270;28;1675;-88
2022/11/25 13:44:33;;;;;;;;;;;8.30;99.90;;;;;;5032576;28;1028;-89
2022/11/25 13:47:26;;;;;;;;;;;8.10;99.90;;;;;;5030682;28;1686;-87
2022/11/25 13:49:55;;;;;;;;;;;8.10;99.90;;;;;;4948339;28;1612;-89
2022/11/25 13:52:36;;;;;;;;;;;8.30;99.90;;;;;;4966830;29;1503;-88
2022/11/25 13:55:20;;;;;;;;;;;8.10;99.90;;;;;;4966168;28;1521;-87
2022/11/25 13:57:48;;;;;;;;;;;8.20;99.90;;;;;;4943295;29;1558;-88
2022/11/25 14:00:31;;;;;;;;;;;8.20;99.90;;;;;;4953273;29;1887;-89
2022/11/25 14:03:25;;;;;;;;;;;8.40;99.90;;;;;;4950211;29;1106;-88
2022/11/25 14:06:04;;;;;;;;;;;8.70;99.90;;;;;;4954153;29;1615;-87
2022/11/25 14:08:43;;;;;;;;;;;8.70;99.90;;;;;;4948353;28;1650;-89
2022/11/25 14:11:34;;;;;;;;;;;8.80;99.90;;;;;;4950644;29;1659;-90
2022/11/25 14:14:16;;;;;;;;;;;8.90;99.90;;;;;;4954086;29;1632;-89
2022/11/25 14:16:57;;;;;;;;;;;8.80;99.90;;;;;;4958851;28;1796;-89
2022/11/25 14:19:39;;;;;;;;;;;8.80;99.90;;;;;;4958387;28;1895;-89
2022/11/25 14:22:41;;;;;;;;;;;8.80;99.90;;;;;;4953717;29;1522;-89
2022/11/25 14:25:16;;;;;;;;;;;8.60;99.90;;;;;;4957346;29;1637;-89
2022/11/25 14:27:45;;;;;;;;;;;8.90;99.90;;;;;;5024768;28;1296;-89
2022/11/25 14:30:14;;;;;;;;;;;9.00;99.90;;;;;;5046303;28;1564;-91
2022/11/25 14:32:44;;;;;;;;;;;9.00;99.90;;;;;;5038632;28;1163;-88
2022/11/25 14:35:14;;;;;;;;;;;9.00;99.90;;;;;;5055852;28;1498;-88
2022/11/25 14:37:44;;;;;;;;;;;9.00;99.90;;;;;;5047149;28;1733;-89
2022/11/25 14:40:15;;;;;;;;;;;8.90;99.90;;;;;;5057720;28;1962;-88
2022/11/25 14:42:45;;;;;;;;;;;8.90;99.90;;;;;;5040136;28;962;-87
2022/11/25 14:45:21;;;;;;;;;;;8.90;99.90;;;;;;5028903;28;1489;-89
2022/11/25 14:47:48;;;;;;;;;;;8.80;99.90;;;;;;5028904;28;1617;-88
2022/11/25 14:50:17;;;;;;;;;;;8.90;99.90;;;;;;5037042;28;1529;-88
2022/11/25 14:53:05;;;;;;;;;;;9.00;99.90;;;;;;5024087;28;1116;-90
2022/11/25 14:55:32;;;;;;;;;;;8.90;99.90;;;;;;5035381;28;1397;-88
2022/11/25 14:58:02;;;;;;;;;;;8.90;99.90;;;;;;5049368;28;1594;-87
2022/11/25 15:00:29;;;;;;;;;;;8.90;99.90;;;;;;5041135;28;1899;-87
2022/11/25 15:02:58;;;;;;;;;;;8.90;99.90;;;;;;5032896;28;950;-88
2022/11/25 15:05:30;;;;;;;;;;;8.90;99.90;;;;;;5026309;28;1568;-88
2022/11/25 15:08:02;;;;;;;;;;;8.90;99.90;;;;;;5025197;28;1564;-86
2022/11/25 15:10:36;;;;;;;;;;;8.90;99.90;;;;;;5036901;28;1057;-87
2022/11/25 15:13:09;;;;;;;;;;;8.90;99.90;;;;;;5022343;28;1006;-87
2022/11/25 15:15:37;;;;;;;;;;;8.60;99.90;;;;;;5033491;28;1636;-88
2022/11/25 15:18:05;;;;;;;;;;;8.90;99.90;;;;;;5026200;28;1577;-88
2022/11/25 15:20:34;;;;;;;;;;;9.10;99.90;;;;;;5033632;28;1979;-88
2022/11/25 15:23:02;;;;;;;;;;;8.90;99.90;;;;;;5027795;28;1087;-90